Time;durP1;ratioP1;P1;durP2;ratioP2;P2;SDS_P1;SDS_P2;PMS_P1;PMS_P2;Temp;Humidity;BMP_temperature;BMP_pressure;BME280_temperature;BME280_humidity;BME280_pressure;Samples;Min_cycle;Max_cycle;Signal;HPM_P1;HPM_P2
2021/05/09 00:02:14;;;;;;;5.38;4.03;;;12.90;99.90;;;;;;4972114;28;20035;-65
2021/05/09 00:04:40;;;;;;;7.40;3.60;;;13.00;99.90;;;;;;4972626;28;20030;-65
2021/05/09 00:07:06;;;;;;;5.80;3.78;;;13.00;99.90;;;;;;4972188;28;20388;-65
2021/05/09 00:09:32;;;;;;;4.10;3.47;;;12.80;99.90;;;;;;4971339;28;20022;-65
2021/05/09 00:11:57;;;;;;;6.25;3.63;;;12.90;99.90;;;;;;4972488;28;20038;-66
2021/05/09 00:14:24;;;;;;;5.82;3.80;;;12.80;99.40;;;;;;4972035;28;20046;-66
2021/05/09 00:16:50;;;;;;;6.72;3.72;;;12.70;99.10;;;;;;4972632;28;20480;-65
2021/05/09 00:19:15;;;;;;;6.07;3.90;;;12.70;98.50;;;;;;4971480;28;20041;-65
2021/05/09 00:21:41;;;;;;;5.60;3.78;;;12.60;98.50;;;;;;4972278;28;20023;-65
2021/05/09 00:24:07;;;;;;;4.60;3.70;;;12.70;98.30;;;;;;4954540;28;20165;-65
2021/05/09 00:26:34;;;;;;;5.63;3.95;;;12.50;98.10;;;;;;4971916;28;20061;-65
2021/05/09 00:29:00;;;;;;;5.30;3.35;;;12.60;98.80;;;;;;4972390;28;20037;-66
2021/05/09 00:31:26;;;;;;;5.68;3.40;;;12.60;99.40;;;;;;4971573;28;20102;-65
2021/05/09 00:33:52;;;;;;;5.85;3.58;;;12.60;99.90;;;;;;4954803;28;20046;-65
2021/05/09 00:36:18;;;;;;;5.10;3.53;;;12.50;99.90;;;;;;4954352;28;20497;-65
2021/05/09 00:38:43;;;;;;;6.10;3.95;;;12.50;99.90;;;;;;4954695;28;20080;-65
2021/05/09 00:41:09;;;;;;;4.32;3.15;;;12.50;99.90;;;;;;4954713;28;20069;-65
2021/05/09 00:43:35;;;;;;;4.72;3.53;;;12.50;99.90;;;;;;4953942;28;20034;-65
2021/05/09 00:46:00;;;;;;;6.45;3.85;;;12.50;99.90;;;;;;4954843;28;20026;-65
2021/05/09 00:48:26;;;;;;;4.32;3.65;;;12.60;99.90;;;;;;4953798;28;20107;-66
2021/05/09 00:50:51;;;;;;;5.85;3.53;;;12.50;99.90;;;;;;4954880;28;20428;-65
2021/05/09 00:53:22;;;;;;;3.85;3.30;;;12.50;99.90;;;;;;4954743;28;20061;-64
2021/05/09 00:55:48;;;;;;;6.63;3.60;;;12.50;99.90;;;;;;4953939;28;20035;-65
2021/05/09 00:58:15;;;;;;;5.40;3.17;;;12.50;99.90;;;;;;4954080;28;20034;-65
2021/05/09 01:00:42;;;;;;;4.30;3.45;;;12.40;99.90;;;;;;4971731;28;20034;-65
2021/05/09 01:03:08;;;;;;;5.57;3.05;;;12.40;99.90;;;;;;4971767;28;20086;-65
2021/05/09 01:05:35;;;;;;;5.95;3.33;;;12.20;99.90;;;;;;4970805;28;20673;-65
2021/05/09 01:08:02;;;;;;;5.60;3.30;;;12.20;99.90;;;;;;4971525;28;20124;-66
2021/05/09 01:10:28;;;;;;;3.90;3.38;;;12.10;99.90;;;;;;4953533;28;20177;-66
2021/05/09 01:12:54;;;;;;;3.40;3.08;;;12.10;98.40;;;;;;4971411;28;20118;-66
2021/05/09 01:15:21;;;;;;;4.38;2.75;;;12.10;98.60;;;;;;4971002;28;20031;-65
2021/05/09 01:17:47;;;;;;;3.85;2.95;;;12.10;98.80;;;;;;4954039;28;20086;-66
2021/05/09 01:20:13;;;;;;;6.28;3.47;;;12.10;98.60;;;;;;4971357;28;20062;-66
2021/05/09 01:22:39;;;;;;;5.05;3.10;;;12.00;98.70;;;;;;4970425;28;20109;-65
2021/05/09 01:25:08;;;;;;;4.45;3.22;;;12.10;98.80;;;;;;4953594;28;20125;-65
2021/05/09 01:27:34;;;;;;;6.30;3.25;;;12.00;98.90;;;;;;4970634;28;20541;-65
2021/05/09 01:30:00;;;;;;;5.43;4.07;;;12.00;99.10;;;;;;4953592;28;20125;-66
2021/05/09 01:32:26;;;;;;;4.10;2.75;;;11.90;99.30;;;;;;4971023;28;20174;-65
2021/05/09 01:34:52;;;;;;;5.00;3.38;;;11.90;99.30;;;;;;4971298;28;20047;-65
2021/05/09 01:37:17;;;;;;;3.50;2.85;;;12.00;99.20;;;;;;4970801;28;20023;-66
2021/05/09 01:39:43;;;;;;;5.18;3.00;;;12.00;99.00;;;;;;4971087;28;20034;-65
2021/05/09 01:42:09;;;;;;;6.63;3.35;;;12.00;98.70;;;;;;4971325;28;20026;-66
2021/05/09 01:44:34;;;;;;;4.97;3.00;;;12.00;98.80;;;;;;4952746;28;20037;-66
2021/05/09 01:47:00;;;;;;;6.65;3.50;;;12.10;98.90;;;;;;4971097;28;20030;-66
2021/05/09 01:49:26;;;;;;;5.28;3.10;;;12.00;98.90;;;;;;4970910;28;20097;-66
2021/05/09 01:51:51;;;;;;;5.75;3.97;;;12.10;98.90;;;;;;4971181;28;20023;-66
2021/05/09 01:54:17;;;;;;;4.72;3.55;;;12.00;98.90;;;;;;4970883;28;20077;-76
2021/05/09 01:56:44;;;;;;;4.32;3.63;;;11.90;99.00;;;;;;4970855;28;20062;-66
2021/05/09 01:59:12;;;;;;;7.20;3.65;;;11.90;99.10;;;;;;4953630;28;20030;-65
2021/05/09 02:01:37;;;;;;;5.22;2.95;;;11.90;99.20;;;;;;4953073;28;20470;-66
2021/05/09 02:04:03;;;;;;;5.07;3.53;;;11.90;99.20;;;;;;4970892;28;20062;-65
2021/05/09 02:06:29;;;;;;;7.55;3.55;;;11.90;99.20;;;;;;4952885;28;20504;-65
2021/05/09 02:08:54;;;;;;;6.57;2.95;;;11.80;99.30;;;;;;4953112;28;20514;-65
2021/05/09 02:11:20;;;;;;;4.78;3.42;;;11.90;99.30;;;;;;4969996;28;20077;-66
2021/05/09 02:13:46;;;;;;;9.88;3.83;;;11.80;99.50;;;;;;4953359;28;20357;-65
2021/05/09 02:16:11;;;;;;;5.15;3.33;;;11.70;99.70;;;;;;4953369;28;20031;-65
2021/05/09 02:18:37;;;;;;;4.75;3.75;;;11.70;99.90;;;;;;4970153;28;20031;-66
2021/05/09 02:21:03;;;;;;;3.85;3.30;;;11.70;99.90;;;;;;4971197;28;20564;-65
2021/05/09 02:23:29;;;;;;;6.32;3.67;;;11.70;99.90;;;;;;4970052;28;20058;-65
2021/05/09 02:25:54;;;;;;;5.70;4.32;;;11.70;99.90;;;;;;4953372;28;20480;-65
2021/05/09 02:28:20;;;;;;;4.60;3.20;;;11.70;99.90;;;;;;4969997;28;20052;-71
2021/05/09 02:30:45;;;;;;;7.30;4.00;;;11.60;99.90;;;;;;4953249;28;20481;-65
2021/05/09 02:33:12;;;;;;;15.13;4.32;;;11.60;99.90;;;;;;4954308;28;20035;-65
2021/05/09 02:35:38;;;;;;;12.55;4.28;;;11.60;99.90;;;;;;4973569;28;20051;-65
2021/05/09 02:38:04;;;;;;;7.53;3.38;;;11.60;99.90;;;;;;4974340;28;20042;-65
2021/05/09 02:40:30;;;;;;;6.13;3.90;;;11.60;99.90;;;;;;4956293;28;20081;-66
2021/05/09 02:42:55;;;;;;;5.72;3.70;;;11.60;99.90;;;;;;4956775;28;20035;-65
2021/05/09 02:45:21;;;;;;;6.28;3.95;;;11.60;99.90;;;;;;4973717;28;20031;-70
2021/05/09 02:47:47;;;;;;;4.45;3.80;;;11.70;99.90;;;;;;4956948;28;20046;-65
2021/05/09 02:50:12;;;;;;;6.68;3.90;;;11.70;99.90;;;;;;4974123;28;20491;-65
2021/05/09 02:52:38;;;;;;;5.07;3.65;;;11.70;99.90;;;;;;4955734;28;20064;-65
2021/05/09 02:55:05;;;;;;;5.47;3.80;;;11.80;99.90;;;;;;4974097;28;20092;-65
2021/05/09 02:57:30;;;;;;;5.82;3.72;;;11.70;99.90;;;;;;4955847;28;20432;-67
2021/05/09 02:59:56;;;;;;;4.40;3.50;;;11.70;99.90;;;;;;4956608;28;20031;-65
2021/05/09 03:02:22;;;;;;;6.13;3.58;;;11.70;99.90;;;;;;4973298;28;20027;-73
2021/05/09 03:04:47;;;;;;;5.95;3.70;;;11.70;99.90;;;;;;4973837;28;20051;-66
2021/05/09 03:07:13;;;;;;;4.68;3.75;;;11.70;99.90;;;;;;4973648;28;20030;-66
2021/05/09 03:09:39;;;;;;;6.15;3.85;;;11.70;99.90;;;;;;4973203;28;20038;-65
2021/05/09 03:12:05;;;;;;;5.22;4.35;;;11.80;99.90;;;;;;4956301;28;20030;-65
2021/05/09 03:14:31;;;;;;;4.95;3.63;;;11.70;99.90;;;;;;4972879;28;20034;-65
2021/05/09 03:16:56;;;;;;;8.52;4.03;;;11.70;99.90;;;;;;4973965;28;20037;-65
2021/05/09 03:19:23;;;;;;;4.88;3.50;;;11.80;99.90;;;;;;4956403;28;20480;-74
2021/05/09 03:21:48;;;;;;;6.78;3.88;;;11.70;99.90;;;;;;4973645;28;20026;-67
2021/05/09 03:24:14;;;;;;;7.07;3.83;;;11.70;99.90;;;;;;4955718;28;20050;-66
2021/05/09 03:26:40;;;;;;;5.72;3.60;;;11.60;99.90;;;;;;4955482;28;20417;-67
2021/05/09 03:29:07;;;;;;;4.07;3.30;;;11.70;99.90;;;;;;4973731;28;20027;-65
2021/05/09 03:31:33;;;;;;;8.77;3.92;;;11.70;99.90;;;;;;4955469;28;20022;-65
2021/05/09 03:33:59;;;;;;;4.55;3.60;;;11.60;99.90;;;;;;4973119;28;20078;-67
2021/05/09 03:36:25;;;;;;;5.43;3.58;;;11.60;99.90;;;;;;4973162;28;20069;-67
2021/05/09 03:38:50;;;;;;;5.88;3.85;;;11.60;99.90;;;;;;4955942;28;20027;-67
2021/05/09 03:41:16;;;;;;;5.10;3.13;;;11.60;99.90;;;;;;4973273;28;20026;-67
2021/05/09 03:43:42;;;;;;;5.05;3.35;;;11.60;99.90;;;;;;4954804;28;20145;-67
2021/05/09 03:46:08;;;;;;;5.97;3.60;;;11.60;99.90;;;;;;4972522;28;20047;-67
2021/05/09 03:48:34;;;;;;;6.68;3.58;;;11.50;99.90;;;;;;4972737;28;20038;-66
2021/05/09 03:51:01;;;;;;;5.28;3.25;;;11.40;99.90;;;;;;4955686;28;20047;-65
2021/05/09 03:53:29;;;;;;;4.63;3.25;;;11.50;99.90;;;;;;4972611;28;20035;-65
2021/05/09 03:55:54;;;;;;;4.93;4.28;;;11.60;99.90;;;;;;4973363;28;20037;-65
2021/05/09 03:58:20;;;;;;;3.95;3.00;;;11.60;99.90;;;;;;4973265;28;20154;-65
2021/05/09 04:00:46;;;;;;;4.35;2.90;;;11.70;99.90;;;;;;4972200;28;20137;-65
2021/05/09 04:03:41;;;;;;;4.35;3.33;;;11.70;99.90;;;;;;4955446;28;20413;-65
2021/05/09 04:06:07;;;;;;;4.05;3.13;;;11.80;99.90;;;;;;4964207;28;20047;-65
2021/05/09 04:08:33;;;;;;;4.53;3.33;;;11.80;99.90;;;;;;4972464;28;20052;-65
2021/05/09 04:11:01;;;;;;;4.20;3.08;;;11.60;99.90;;;;;;4955289;28;20117;-65
2021/05/09 04:13:27;;;;;;;3.60;2.95;;;11.70;99.90;;;;;;4954509;28;20468;-69
2021/05/09 04:15:52;;;;;;;5.38;3.42;;;11.60;99.90;;;;;;4955289;28;20034;-66
2021/05/09 04:18:18;;;;;;;6.82;3.63;;;11.40;99.90;;;;;;4955424;28;20114;-66
2021/05/09 04:20:44;;;;;;;4.85;3.60;;;11.50;99.90;;;;;;4972321;28;20403;-66
2021/05/09 04:23:13;;;;;;;5.93;3.88;;;11.40;99.90;;;;;;4972398;28;20125;-66
2021/05/09 04:25:41;;;;;;;5.47;3.80;;;11.30;99.90;;;;;;4954444;28;20126;-66
2021/05/09 04:28:07;;;;;;;4.25;3.03;;;11.30;99.90;;;;;;4954982;28;20042;-66
2021/05/09 04:30:34;;;;;;;9.95;3.63;;;11.40;99.90;;;;;;4971752;28;20034;-66
2021/05/09 04:33:01;;;;;;;5.03;3.60;;;11.30;99.90;;;;;;4972319;28;20081;-66
2021/05/09 04:35:27;;;;;;;6.10;3.42;;;11.30;99.90;;;;;;4971903;28;20452;-66
2021/05/09 04:37:53;;;;;;;4.38;3.20;;;11.40;99.90;;;;;;4954564;28;20117;-66
2021/05/09 04:40:19;;;;;;;4.78;3.42;;;11.30;99.90;;;;;;4972341;28;20114;-65
2021/05/09 04:42:44;;;;;;;6.28;3.75;;;11.40;99.90;;;;;;4971575;28;20425;-65
2021/05/09 04:45:10;;;;;;;3.92;3.08;;;11.30;99.90;;;;;;4954610;28;20070;-66
2021/05/09 04:47:36;;;;;;;3.72;3.22;;;11.30;99.90;;;;;;4971514;28;20476;-66
2021/05/09 04:50:03;;;;;;;6.10;3.60;;;11.20;99.90;;;;;;4954509;28;20026;-66
2021/05/09 04:52:28;;;;;;;4.57;3.70;;;11.40;99.90;;;;;;4953895;28;20035;-68
2021/05/09 04:54:54;;;;;;;6.68;3.72;;;11.40;99.90;;;;;;4971693;28;20033;-65
2021/05/09 04:57:20;;;;;;;4.10;3.22;;;11.50;99.90;;;;;;4971303;28;20035;-65
2021/05/09 04:59:45;;;;;;;5.80;3.35;;;11.60;99.90;;;;;;4971177;28;20333;-66
2021/05/09 05:02:11;;;;;;;3.75;3.08;;;11.70;99.90;;;;;;4954311;28;20054;-65
2021/05/09 05:04:36;;;;;;;4.45;3.72;;;11.70;99.90;;;;;;4970878;28;20035;-65
2021/05/09 05:07:02;;;;;;;5.25;3.72;;;11.70;99.90;;;;;;4971485;28;20082;-65
2021/05/09 05:09:28;;;;;;;6.40;2.90;;;11.80;99.90;;;;;;4971389;28;20066;-65
2021/05/09 05:11:54;;;;;;;4.32;3.70;;;11.90;99.90;;;;;;4953683;28;20425;-65
2021/05/09 05:14:20;;;;;;;6.10;3.58;;;11.90;99.90;;;;;;4954184;28;20452;-65
2021/05/09 05:16:45;;;;;;;8.05;3.30;;;11.80;99.90;;;;;;4971166;28;20045;-65
2021/05/09 05:19:11;;;;;;;4.63;3.00;;;11.90;99.90;;;;;;4971992;28;20421;-66
2021/05/09 05:21:36;;;;;;;4.03;3.50;;;11.90;99.90;;;;;;4970882;28;20098;-67
2021/05/09 05:24:02;;;;;;;4.43;3.50;;;11.90;99.90;;;;;;4953696;28;20492;-66
2021/05/09 05:26:28;;;;;;;6.30;3.45;;;12.00;99.90;;;;;;4971482;28;20110;-65
2021/05/09 05:28:53;;;;;;;6.00;3.15;;;12.30;99.90;;;;;;4970676;28;20027;-65
2021/05/09 05:31:19;;;;;;;4.10;3.50;;;12.30;99.90;;;;;;4971357;28;20089;-65
2021/05/09 05:33:45;;;;;;;3.30;2.95;;;12.40;99.90;;;;;;4953053;28;20034;-66
2021/05/09 05:36:10;;;;;;;4.45;3.10;;;12.30;99.90;;;;;;4971228;28;20035;-65
2021/05/09 05:38:36;;;;;;;6.30;3.78;;;12.40;99.90;;;;;;4953287;28;20031;-66
2021/05/09 05:41:02;;;;;;;5.55;3.58;;;12.50;99.90;;;;;;4971435;28;20027;-66
2021/05/09 05:43:29;;;;;;;3.47;3.15;;;12.60;99.90;;;;;;4971294;28;20035;-66
2021/05/09 05:45:57;;;;;;;14.32;3.55;;;12.70;99.90;;;;;;4970576;28;20080;-66
2021/05/09 05:48:24;;;;;;;5.68;2.85;;;12.80;99.90;;;;;;4970889;28;20357;-66
2021/05/09 05:50:50;;;;;;;5.80;3.40;;;12.70;99.90;;;;;;4953123;28;20424;-66
2021/05/09 05:53:18;;;;;;;6.25;3.22;;;12.80;99.90;;;;;;4953462;28;20457;-66
2021/05/09 05:55:45;;;;;;;4.60;3.03;;;12.80;99.90;;;;;;4970427;28;20034;-65
2021/05/09 05:58:10;;;;;;;4.15;3.25;;;12.90;99.90;;;;;;4970941;28;20035;-65
2021/05/09 06:00:36;;;;;;;4.07;3.25;;;13.00;99.90;;;;;;4952946;28;20022;-65
2021/05/09 06:03:02;;;;;;;4.93;3.35;;;12.90;99.90;;;;;;4953239;28;20038;-65
2021/05/09 06:05:27;;;;;;;4.43;3.15;;;12.80;99.90;;;;;;4970332;28;20058;-66
2021/05/09 06:07:53;;;;;;;4.60;3.50;;;13.00;99.90;;;;;;4953521;28;20109;-66
2021/05/09 06:10:19;;;;;;;4.60;3.47;;;13.20;99.90;;;;;;4974522;28;20117;-66
2021/05/09 06:12:44;;;;;;;5.80;2.75;;;13.40;99.60;;;;;;4973837;28;20341;-66
2021/05/09 06:15:10;;;;;;;3.67;2.80;;;13.40;99.50;;;;;;4974209;28;20039;-66
2021/05/09 06:17:36;;;;;;;4.93;3.33;;;13.70;99.20;;;;;;4956608;28;20066;-66
2021/05/09 06:20:03;;;;;;;3.47;3.17;;;13.70;99.10;;;;;;4957022;28;20420;-66
2021/05/09 06:22:29;;;;;;;5.65;2.90;;;13.60;99.30;;;;;;4974483;28;20042;-66
2021/05/09 06:24:55;;;;;;;5.80;3.10;;;13.90;99.10;;;;;;4956462;28;20050;-66
2021/05/09 06:27:20;;;;;;;3.28;2.95;;;13.90;98.90;;;;;;4957277;28;20113;-66
2021/05/09 06:29:46;;;;;;;5.72;3.22;;;13.80;99.20;;;;;;4956588;28;20461;-66
2021/05/09 06:32:12;;;;;;;4.45;2.97;;;13.80;99.10;;;;;;4974670;28;20034;-66
2021/05/09 06:34:42;;;;;;;4.10;3.33;;;14.00;99.00;;;;;;4956073;28;20049;-66
2021/05/09 06:37:08;;;;;;;7.15;3.20;;;14.20;98.60;;;;;;4974314;28;20489;-65
2021/05/09 06:39:33;;;;;;;4.55;3.20;;;14.30;98.60;;;;;;4974536;28;20113;-66
2021/05/09 06:42:00;;;;;;;5.18;2.80;;;14.40;98.60;;;;;;4973743;28;20030;-65
2021/05/09 06:44:30;;;;;;;4.43;2.63;;;14.60;98.30;;;;;;4956584;28;20403;-66
2021/05/09 06:46:56;;;;;;;3.47;2.83;;;14.90;97.80;;;;;;4973723;28;20023;-65
2021/05/09 06:49:21;;;;;;;5.88;2.60;;;14.80;97.60;;;;;;4974189;28;20031;-66
2021/05/09 06:51:47;;;;;;;2.70;2.22;;;14.80;97.60;;;;;;4973519;28;20023;-66
2021/05/09 06:54:13;;;;;;;3.05;2.25;;;15.00;97.50;;;;;;4956333;28;20073;-69
2021/05/09 06:56:39;;;;;;;4.40;2.33;;;15.20;97.20;;;;;;4955993;28;20031;-65
2021/05/09 06:59:04;;;;;;;4.65;2.35;;;15.20;96.90;;;;;;4956506;28;20033;-65
2021/05/09 07:01:30;;;;;;;4.80;2.10;;;15.20;96.80;;;;;;4956190;28;20038;-67
2021/05/09 07:03:56;;;;;;;3.20;1.98;;;15.30;96.60;;;;;;4955790;28;20425;-65
2021/05/09 07:06:21;;;;;;;5.25;2.00;;;15.30;96.80;;;;;;4956405;28;20094;-66
2021/05/09 07:08:47;;;;;;;3.65;2.03;;;15.40;96.50;;;;;;4955447;28;20050;-65
2021/05/09 07:11:13;;;;;;;3.40;2.13;;;15.40;96.60;;;;;;4973715;28;20034;-66
2021/05/09 07:13:38;;;;;;;1.75;1.48;;;15.70;96.40;;;;;;4955133;28;20035;-65
2021/05/09 07:16:04;;;;;;;2.10;1.60;;;15.90;96.20;;;;;;4973236;28;20035;-65
2021/05/09 07:18:31;;;;;;;3.22;1.80;;;16.00;95.70;;;;;;4973104;28;20027;-66
2021/05/09 07:20:59;;;;;;;6.05;1.80;;;16.10;95.80;;;;;;4955260;28;20272;-66
2021/05/09 07:23:26;;;;;;;1.60;1.50;;;16.30;95.30;;;;;;4952460;29;20547;-64
2021/05/09 07:25:53;;;;;;;4.47;1.58;;;16.50;95.20;;;;;;4953484;28;20027;-65
2021/05/09 07:28:20;;;;;;;2.80;1.73;;;16.70;95.40;;;;;;4953863;28;20118;-66
2021/05/09 07:30:47;;;;;;;9.98;2.08;;;16.90;95.60;;;;;;4951843;29;20023;-65
2021/05/09 07:33:13;;;;;;;1.77;1.38;;;17.10;96.80;;;;;;4953569;29;20028;-65
2021/05/09 07:35:40;;;;;;;1.90;1.70;;;17.30;97.50;;;;;;4951151;29;20078;-66
2021/05/09 07:38:08;;;;;;;2.85;2.45;;;17.40;96.70;;;;;;4951998;29;20059;-66
2021/05/09 07:40:34;;;;;;;4.47;2.33;;;17.50;96.80;;;;;;4951789;29;20035;-66
2021/05/09 07:43:00;;;;;;;4.40;1.90;;;17.80;98.70;;;;;;4952764;29;20083;-65
2021/05/09 07:45:26;;;;;;;7.30;2.10;;;;;;;;;;4953252;29;20027;-66
2021/05/09 07:47:52;;;;;;;5.72;2.20;;;18.40;99.90;;;;;;4949357;29;20041;-66
2021/05/09 07:50:19;;;;;;;2.38;1.80;;;18.70;92.00;;;;;;4939690;29;20123;-67
2021/05/09 07:52:47;;;;;;;2.20;1.60;;;18.30;91.70;;;;;;4932454;29;20107;-61
2021/05/09 07:55:13;;;;;;;2.38;1.90;;;18.60;93.20;;;;;;4934375;29;20410;-60
2021/05/09 07:57:40;;;;;;;2.13;1.60;;;19.10;92.30;;;;;;4934175;29;20039;-81
2021/05/09 08:00:09;;;;;;;2.30;1.33;;;19.40;91.80;;;;;;4933194;29;20119;-60
2021/05/09 08:02:35;;;;;;;5.38;2.22;;;19.70;91.10;;;;;;4934052;29;20402;-60
2021/05/09 08:05:00;;;;;;;1.90;1.08;;;19.80;90.30;;;;;;4933565;29;20052;-61
2021/05/09 08:07:26;;;;;;;1.50;1.23;;;19.90;90.30;;;;;;4934383;29;20028;-60
2021/05/09 08:09:51;;;;;;;2.10;1.38;;;20.00;87.70;;;;;;4933674;29;20035;-61
2021/05/09 08:12:17;;;;;;;1.80;1.02;;;20.40;88.50;;;;;;4934013;29;20465;-61
2021/05/09 08:14:43;;;;;;;2.03;1.23;;;20.70;87.40;;;;;;4933648;29;20523;-62
2021/05/09 08:17:08;;;;;;;3.08;1.02;;;20.90;85.70;;;;;;4934336;29;20466;-61
2021/05/09 08:19:34;;;;;;;1.25;1.00;;;20.90;85.50;;;;;;4933827;29;20027;-60
2021/05/09 08:22:02;;;;;;;4.00;1.13;;;21.10;84.90;;;;;;4933058;29;20225;-45
2021/05/09 08:24:29;;;;;;;6.97;1.30;;;21.40;84.00;;;;;;4946932;29;20141;-48
2021/05/09 08:26:55;;;;;;;1.98;1.27;;;21.70;84.70;;;;;;4952467;29;20102;-50
2021/05/09 08:29:20;;;;;;;3.05;0.77;;;22.00;84.80;;;;;;4935776;29;20099;-50
2021/05/09 08:31:46;;;;;;;1.95;1.10;;;22.10;80.50;;;;;;4933862;29;20118;-49
2021/05/09 08:34:12;;;;;;;10.00;1.20;;;22.20;82.50;;;;;;4952465;29;20139;-50
2021/05/09 08:36:37;;;;;;;2.33;1.40;;;22.40;86.50;;;;;;4962382;28;20031;-49
2021/05/09 08:39:04;;;;;;;2.15;1.35;;;22.70;79.00;;;;;;4953292;28;20432;-46
2021/05/09 08:41:29;;;;;;;2.03;1.58;;;22.90;78.00;;;;;;4968953;28;20157;-53
2021/05/09 08:43:56;;;;;;;4.10;1.20;;;22.70;76.90;;;;;;4960332;28;20437;-49
2021/05/09 08:46:22;;;;;;;4.05;1.40;;;22.50;76.70;;;;;;4943982;28;20105;-49
2021/05/09 08:48:54;;;;;;;4.28;2.40;;;22.70;76.80;;;;;;4941872;28;20125;-56
2021/05/09 08:51:19;;;;;;;2.05;1.08;;;23.00;79.40;;;;;;4952528;28;20086;-48
2021/05/09 08:53:48;;;;;;;1.65;1.27;;;23.20;73.90;;;;;;4952943;28;20488;-59
2021/05/09 08:56:14;;;;;;;9.23;2.13;;;23.20;74.60;;;;;;4970283;28;20163;-49
2021/05/09 08:58:40;;;;;;;2.97;1.30;;;23.50;74.30;;;;;;4953328;28;20026;-66
2021/05/09 09:01:06;;;;;;;3.90;1.70;;;23.50;73.10;;;;;;4969830;28;20384;-67
2021/05/09 09:03:34;;;;;;;2.58;1.20;;;23.70;72.40;;;;;;4970297;28;20066;-65
2021/05/09 09:06:03;;;;;;;1.88;0.90;;;23.80;71.70;;;;;;4952188;28;20122;-67
2021/05/09 09:08:29;;;;;;;1.23;1.00;;;23.50;72.80;;;;;;4952966;28;20038;-66
2021/05/09 09:10:54;;;;;;;1.35;1.08;;;23.50;72.40;;;;;;4969593;28;20381;-66
2021/05/09 09:13:29;;;;;;;2.25;1.45;;;23.40;73.10;;;;;;4949698;28;20042;-66
2021/05/09 09:16:02;;;;;;;1.27;1.08;;;24.30;73.00;;;;;;4950975;29;20035;-66
2021/05/09 09:18:43;;;;;;;1.63;0.90;;;24.60;69.10;;;;;;4951135;29;20066;-64
2021/05/09 09:21:28;;;;;;;1.48;1.20;;;;;;;;;;4969228;28;20126;-65
2021/05/09 09:23:56;;;;;;;4.15;1.05;;;24.70;68.80;;;;;;4967878;28;20050;-65
2021/05/09 09:26:26;;;;;;;1.90;1.15;;;25.10;70.50;;;;;;4969810;28;20105;-65
2021/05/09 09:28:51;;;;;;;1.27;1.00;;;25.50;65.90;;;;;;4951760;28;20433;-67
2021/05/09 09:31:35;;;;;;;1.58;0.90;;;25.70;66.10;;;;;;4968380;28;20098;-65
2021/05/09 09:34:00;;;;;;;1.38;1.00;;;25.60;64.90;;;;;;4932628;29;20047;-65
2021/05/09 09:36:26;;;;;;;1.02;0.90;;;25.60;65.10;;;;;;4933570;29;20035;-65
2021/05/09 09:38:53;;;;;;;1.77;1.10;;;25.40;66.30;;;;;;4952384;28;20040;-64
2021/05/09 09:41:20;;;;;;;1.40;1.02;;;25.70;65.50;;;;;;4951943;28;20035;-64
2021/05/09 09:44:18;;;;;;;3.08;0.60;;;25.70;64.30;;;;;;4977980;28;20026;-66
2021/05/09 09:46:53;;;;;;;1.92;0.70;;;25.30;64.50;;;;;;4945279;28;20126;-76
2021/05/09 09:49:26;;;;;;;1.55;0.80;;;25.30;65.10;;;;;;4986775;28;20026;-65
2021/05/09 09:52:00;;;;;;;3.08;0.75;;;25.70;64.70;;;;;;4951145;28;20034;-70
2021/05/09 09:54:40;;;;;;;2.33;1.00;;;26.00;65.40;;;;;;4945824;28;20218;-65
2021/05/09 09:57:11;;;;;;;2.67;0.93;;;26.40;62.80;;;;;;4971395;28;20495;-50
2021/05/09 09:59:38;;;;;;;3.40;1.60;;;25.90;63.70;;;;;;4972970;28;20031;-50
2021/05/09 10:02:07;;;;;;;1.73;0.65;;;25.90;64.10;;;;;;4961135;28;20027;-50
2021/05/09 10:04:34;;;;;;;0.77;0.70;;;25.70;64.50;;;;;;4968345;28;20033;-50
2021/05/09 10:07:05;;;;;;;0.95;0.80;;;25.50;64.90;;;;;;4948163;28;20748;-52
2021/05/09 10:09:31;;;;;;;2.53;0.65;;;25.60;65.40;;;;;;4960860;28;20035;-55
2021/05/09 10:11:57;;;;;;;4.13;0.77;;;25.80;64.50;;;;;;4963965;28;20098;-54
2021/05/09 10:14:23;;;;;;;1.80;1.10;;;25.90;64.00;;;;;;4946849;28;20144;-49
2021/05/09 10:16:51;;;;;;;2.70;1.27;;;26.00;63.80;;;;;;4944553;28;20038;-50
2021/05/09 10:19:23;;;;;;;1.30;0.80;;;26.00;63.00;;;;;;4959338;28;20043;-51
2021/05/09 10:21:50;;;;;;;4.53;1.23;;;26.00;62.50;;;;;;4948934;28;20118;-54
2021/05/09 10:24:23;;;;;;;2.85;1.00;;;26.20;62.50;;;;;;4967751;28;20129;-49
2021/05/09 10:26:53;;;;;;;2.78;1.02;;;26.10;61.10;;;;;;4949744;28;20062;-54
2021/05/09 10:29:38;;;;;;;1.17;0.80;;;26.20;61.20;;;;;;4948475;28;20022;-50
2021/05/09 10:32:27;;;;;;;4.15;0.60;;;26.30;59.90;;;;;;4957108;28;20027;-51
2021/05/09 10:35:11;;;;;;;2.85;0.90;;;26.10;58.40;;;;;;4938041;28;20055;-51
2021/05/09 10:37:45;;;;;;;1.95;0.70;;;25.90;57.10;;;;;;4942133;28;20137;-52
2021/05/09 10:40:17;;;;;;;1.73;0.73;;;26.10;57.00;;;;;;4943181;28;20081;-53
2021/05/09 10:42:43;;;;;;;3.28;1.27;;;26.00;56.30;;;;;;4961506;28;20034;-63
2021/05/09 10:45:09;;;;;;;1.17;0.63;;;26.00;56.70;;;;;;4958670;28;20032;-53
2021/05/09 10:47:35;;;;;;;1.17;0.60;;;26.10;56.40;;;;;;4942789;28;20031;-58
2021/05/09 10:50:19;;;;;;;3.20;0.70;;;26.40;55.50;;;;;;4957752;28;20496;-54
2021/05/09 10:52:46;;;;;;;2.22;0.95;;;26.60;55.30;;;;;;4959469;28;20019;-60
2021/05/09 10:55:46;;;;;;;2.08;0.73;;;26.60;55.10;;;;;;4962070;28;20137;-52
2021/05/09 10:58:14;;;;;;;4.53;0.70;;;26.40;54.70;;;;;;4960651;28;20496;-53
2021/05/09 11:00:55;;;;;;;3.10;0.52;;;26.50;54.30;;;;;;4962416;28;20031;-51
2021/05/09 11:03:40;;;;;;;;;;;26.60;53.90;;;;;;4961277;28;20025;-59
2021/05/09 11:06:14;;;;;;;5.43;0.80;;;26.50;53.50;;;;;;4966567;28;20243;-51
2021/05/09 11:08:52;;;;;;;3.35;0.75;;;26.50;53.20;;;;;;4956618;28;20030;-62
2021/05/09 11:11:21;;;;;;;2.13;0.98;;;26.60;53.20;;;;;;4947814;28;20038;-62
2021/05/09 11:14:05;;;;;;;2.53;0.70;;;26.80;53.20;;;;;;4947488;28;20522;-62
2021/05/09 11:16:43;;;;;;;1.85;0.82;;;27.00;52.60;;;;;;4946609;28;20161;-61
2021/05/09 11:19:11;;;;;;;1.05;0.60;;;27.10;52.20;;;;;;4952959;28;20468;-63
2021/05/09 11:21:37;;;;;;;2.75;1.10;;;27.00;52.10;;;;;;4969390;28;20053;-62
2021/05/09 11:24:05;;;;;;;2.42;1.08;;;27.00;52.20;;;;;;4969382;28;20661;-66
2021/05/09 11:26:36;;;;;;;3.40;0.82;;;27.20;51.80;;;;;;4970620;28;20492;-61
2021/05/09 11:29:08;;;;;;;;;;;27.50;51.50;;;;;;4954498;28;20035;-60
2021/05/09 11:31:35;;;;;;;6.30;0.80;;;27.50;50.70;;;;;;4970416;28;19910;-65
2021/05/09 11:34:02;;;;;;;5.03;1.10;;;27.60;51.00;;;;;;4969867;28;20046;-61
2021/05/09 11:36:30;;;;;;;2.30;0.50;;;27.60;52.20;;;;;;4970310;28;20111;-66
2021/05/09 11:39:13;;;;;;;1.10;0.55;;;27.60;51.20;;;;;;4954835;28;20030;-61
2021/05/09 11:42:03;;;;;;;5.15;1.00;;;27.40;50.70;;;;;;4949172;28;20040;-62
2021/05/09 11:44:42;;;;;;;2.20;0.63;;;27.70;51.20;;;;;;4966760;28;20042;-63
2021/05/09 11:47:21;;;;;;;1.17;1.08;;;27.80;50.70;;;;;;4965845;28;20027;-62
2021/05/09 11:49:47;;;;;;;1.98;0.70;;;28.00;49.90;;;;;;4968483;28;20019;-60
2021/05/09 11:52:21;;;;;;;4.00;0.70;;;27.90;49.60;;;;;;4968339;28;20093;-61
2021/05/09 11:54:58;;;;;;;1.88;0.68;;;28.10;50.30;;;;;;4959225;28;20059;-61
2021/05/09 11:57:29;;;;;;;2.70;0.85;;;28.10;48.90;;;;;;4950923;28;20046;-61
2021/05/09 12:00:01;;;;;;;1.13;0.70;;;28.00;49.20;;;;;;4966019;28;20386;-62
2021/05/09 12:02:32;;;;;;;2.00;0.82;;;28.20;48.60;;;;;;4953822;28;20093;-62
2021/05/09 12:05:00;;;;;;;2.80;1.00;;;28.20;48.60;;;;;;4950731;28;20141;-63
2021/05/09 12:07:35;;;;;;;4.10;0.50;;;28.10;48.70;;;;;;4969384;28;20102;-63
2021/05/09 12:10:07;;;;;;;3.55;1.08;;;27.70;49.40;;;;;;4955925;28;20089;-58
2021/05/09 12:12:38;;;;;;;2.58;1.23;;;27.60;59.30;;;;;;4954006;28;20118;-58
2021/05/09 12:15:08;;;;;;;;;;;27.70;51.00;;;;;;4964108;28;20262;-59
2021/05/09 12:17:34;;;;;;;1.67;0.80;;;27.90;49.80;;;;;;4955387;28;19910;-60
2021/05/09 12:20:00;;;;;;;3.65;1.02;;;27.80;51.10;;;;;;4954664;28;20081;-64
2021/05/09 12:22:37;;;;;;;2.38;0.75;;;27.70;52.40;;;;;;4968676;28;20043;-61
2021/05/09 12:25:03;;;;;;;3.35;0.95;;;27.70;49.70;;;;;;4968995;28;20652;-60
2021/05/09 12:27:29;;;;;;;3.03;0.75;;;27.60;50.00;;;;;;4963665;28;20031;-61
2021/05/09 12:29:57;;;;;;;3.22;0.80;;;27.60;50.20;;;;;;4970677;28;20402;-60
2021/05/09 12:32:29;;;;;;;5.95;2.28;;;27.80;49.70;;;;;;4933812;29;20173;-62
2021/05/09 12:35:09;;;;;;;5.68;1.27;;;28.20;49.40;;;;;;4951668;29;20035;-62
2021/05/09 12:37:55;;;;;;;4.82;0.82;;;28.10;49.10;;;;;;4952056;29;20058;-60
2021/05/09 12:40:32;;;;;;;3.88;1.48;;;28.20;49.10;;;;;;4962778;28;20043;-60
2021/05/09 12:43:02;;;;;;;3.08;1.27;;;28.40;48.60;;;;;;4970726;28;20035;-60
2021/05/09 12:45:40;;;;;;;6.00;2.27;;;28.40;48.30;;;;;;4971417;28;20022;-60
2021/05/09 12:48:17;;;;;;;2.50;1.67;;;28.50;48.60;;;;;;4953107;28;20282;-61
2021/05/09 12:50:57;;;;;;;1.83;0.80;;;28.50;49.10;;;;;;4954156;28;20505;-62
2021/05/09 12:54:01;;;;;;;2.10;0.88;;;28.20;49.20;;;;;;4953525;28;20066;-60